Still River, Massachusetts
Current Conditions -  °F | °C
As of 4:52 PM on Thursday 27 Nov 2014 (Local Time) from KFIT Reporting Station
Overcast Overcast  
Wind Chill: 25°   Ceiling: 2400
Heat Index: 31°   Visibility: 10mi
Dew Point: 25°   Wind: 6mph
Humidity: 79%   Direction: 340°NNW
Pressure: 29.98"   Gusts: NA
Location:  42.49°N, 71.62°W
Report Text: KFIT 272152Z AUTO 34005KT 10SM OVC024 M01/M04 A2998 RMK AO2 SLP158 T10061039
Loading
Personal Weather Stations






























Interactive Weather Map New forecast layout! Learn more

10-Day Weather Forecast

Advertisements
Track Severe Weather on mobile